Kezdőlap
METAR-TAF:

METAR-TAF

Repülőterek :

Zabol, Irán

földrajzi szélesség: 31-20N, földrajzi hosszúság: 061-29E, magasság: 489 m

Jelenlegi meteorológiai megfigyelések

A jelentés 38 perccel ezelõtt készült, 08:30 UTC
Északi szél 14 kt
Hőmérséklet 31°C
Páratartalom 24%
Légköri nyomás 1009 hPa
Látótávolság: 7000 m

METAR: OIZB 240830Z 36014KT 7000 NSC 31/08 Q1009

Idő: 13:38 (09:08 UTC)


TAF: hiányzik

Meteorológiai megfigyelések és előrejelzések több, mint 4000 repülőtéren (METAR és TAF jelentéseket).

A térképen piros és sárga pontok jelzik az elérhető meteorológiai állomásokat.

Mozgassa az egeret a pont fölött, hogy megjelenjen az állomás neve.

Azután kattintson az időjárási megfigyelések és előrejelzések megtekintéséhez.

A térkép megváltoztatása: kattintson a fekete keresztel jelölt zöld gombra ráközelítéshez, a vonallal jelölt zöld gombra távolításhoz, vagy a zöld nyilakra a szomszédos térképek eléréséhez.


METAR-TAF: